PWSweather.com
Personal Weather Stations
Station Observations
MCGILVRAWX
Madison Park, Seattle, WA 98112

Madison ParkSeattle, WA 98112

Lat: 47.634, Lon: -122.2846

Elevation: 125

Station Type: Oregon Scientific WMR-200/A

mcgilvraes.seattleschools.org

High Low Average
Temperature 58.1°F14.5°C 50.9°F10.5°C 54.9°F12.7°C
Dew Point 51.1°F10.6°C 45.5°F7.5°C 47.1°F8.4°C
Winds 4.1 mph 6.6 kmh Calm Calm 1.0 mph SW1.6 kmh SW
Wind Gusts 12.1 mph19.5 kmh -- 3.0 mph4.8 kmh
Humidity 86% 64% 75%
Pressure 29.80 in1009.1 mb 29.71 in1006.1 mb -
Precipitation 0.00 in0.0 mm - -
Hour Temp Dew Point Humidity Winds Wind Gusts Pressure Precip Precip Rate Daily Precip Total
12:02 AM 56.8°F13.8°C 48.3°F9.1°C 73% 0.8 mph NNW1.3 kmh NNW 2.0 mph3.2 kmh 29.74 in1007.1 mb 0.00 in0.0 mm 0.00 in/hr0.0 mm/hr 0.00 in0.0 mm
12:07 AM 56.8°F13.8°C 48.3°F9.1°C 73% 0.9 mph NW1.4 kmh NW 2.9 mph4.7 kmh 29.77 in1008.1 mb 0.00 in0.0 mm 0.00 in/hr0.0 mm/hr 0.00 in0.0 mm
12:12 AM 56.8°F13.8°C 48.5°F9.2°C 74% 1.7 mph NNE2.7 kmh NNE 3.6 mph5.8 kmh 29.77 in1008.1 mb 0.00 in0.0 mm 0.00 in/hr0.0 mm/hr 0.00 in0.0 mm
12:17 AM 56.7°F13.7°C 48.2°F9.0°C 73% 0.4 mph NW0.6 kmh NW 3.6 mph5.8 kmh 29.77 in1008.1 mb 0.00 in0.0 mm 0.00 in/hr0.0 mm/hr 0.00 in0.0 mm
12:22 AM 56.6°F13.7°C 48.3°F9.1°C 74% 1.3 mph NNW2.1 kmh NNW 2.5 mph4.0 kmh 29.74 in1007.1 mb 0.00 in0.0 mm 0.00 in/hr0.0 mm/hr 0.00 in0.0 mm
12:27 AM 56.4°F13.6°C 48.2°F9.0°C 74% Calm Calm 2.5 mph4.0 kmh 29.74 in1007.1 mb 0.00 in0.0 mm 0.00 in/hr0.0 mm/hr 0.00 in0.0 mm
12:32 AM 56.3°F13.5°C 48.0°F8.9°C 74% 0.6 mph N1.0 kmh N 3.6 mph5.8 kmh 29.74 in1007.1 mb 0.00 in0.0 mm 0.00 in/hr0.0 mm/hr 0.00 in0.0 mm
12:37 AM 56.1°F13.4°C 48.1°F8.9°C 75% 2.2 mph N3.5 kmh N 3.6 mph5.8 kmh 29.74 in1007.1 mb 0.00 in0.0 mm 0.00 in/hr0.0 mm/hr 0.00 in0.0 mm
12:42 AM 56.0°F13.3°C 48.2°F9.0°C 75% 1.2 mph NW1.9 kmh NW 3.1 mph5.0 kmh 29.74 in1007.1 mb 0.00 in0.0 mm 0.00 in/hr0.0 mm/hr 0.00 in0.0 mm
12:47 AM 55.9°F13.3°C 48.1°F8.9°C 75% 0.9 mph WNW1.4 kmh WNW 2.5 mph4.0 kmh 29.74 in1007.1 mb 0.00 in0.0 mm 0.00 in/hr0.0 mm/hr 0.00 in0.0 mm
12:52 AM 55.9°F13.3°C 48.1°F8.9°C 75% Calm Calm 1.6 mph2.6 kmh 29.74 in1007.1 mb 0.00 in0.0 mm 0.00 in/hr0.0 mm/hr 0.00 in0.0 mm
12:57 AM 55.8°F13.2°C 47.6°F8.7°C 74% 0.6 mph NNW1.0 kmh NNW 1.3 mph2.1 kmh 29.74 in1007.1 mb 0.00 in0.0 mm 0.00 in/hr0.0 mm/hr 0.00 in0.0 mm
01:02 AM 55.9°F13.3°C 47.9°F8.8°C 74% Calm Calm 1.3 mph2.1 kmh 29.74 in1007.1 mb 0.00 in0.0 mm 0.00 in/hr0.0 mm/hr 0.00 in0.0 mm
01:07 AM 55.9°F13.3°C 47.9°F8.8°C 75% 0.6 mph N1.0 kmh N 1.6 mph2.6 kmh 29.74 in1007.1 mb 0.00 in0.0 mm 0.00 in/hr0.0 mm/hr 0.00 in0.0 mm
01:12 AM 55.9°F13.3°C 48.0°F8.9°C 74% 0.3 mph SW0.5 kmh SW 1.6 mph2.6 kmh 29.74 in1007.1 mb 0.00 in0.0 mm 0.00 in/hr0.0 mm/hr 0.00 in0.0 mm
01:17 AM 55.8°F13.2°C 47.8°F8.8°C 74% 0.8 mph NNW1.3 kmh NNW 1.6 mph2.6 kmh 29.74 in1007.1 mb 0.00 in0.0 mm 0.00 in/hr0.0 mm/hr 0.00 in0.0 mm
01:22 AM 55.6°F13.1°C 47.4°F8.6°C 74% Calm Calm 1.6 mph2.6 kmh 29.74 in1007.1 mb 0.00 in0.0 mm 0.00 in/hr0.0 mm/hr 0.00 in0.0 mm
01:27 AM 55.5°F13.1°C 47.4°F8.6°C 74% 0.4 mph NNW0.6 kmh NNW 2.0 mph3.2 kmh 29.74 in1007.1 mb 0.00 in0.0 mm 0.00 in/hr0.0 mm/hr 0.00 in0.0 mm
01:32 AM 55.4°F13.0°C 47.3°F8.5°C 74% Calm Calm 2.0 mph3.2 kmh 29.74 in1007.1 mb 0.00 in0.0 mm 0.00 in/hr0.0 mm/hr 0.00 in0.0 mm
01:37 AM -5537.2°C -5537.2°C - 0.1 mph NNW0.2 kmh NNW 1.1 mph1.8 kmh 29.74 in1007.1 mb 0.00 in0.0 mm 0.00 in/hr0.0 mm/hr 0.00 in0.0 mm
01:42 AM 55.1°F12.8°C 47.0°F8.3°C 74% Calm Calm 1.1 mph1.8 kmh 29.74 in1007.1 mb 0.00 in0.0 mm 0.00 in/hr0.0 mm/hr 0.00 in0.0 mm
01:47 AM 55.0°F12.8°C 47.0°F8.3°C 74% Calm Calm 1.1 mph1.8 kmh 29.74 in1007.1 mb 0.00 in0.0 mm 0.00 in/hr0.0 mm/hr 0.00 in0.0 mm
01:52 AM -5537.2°C -5537.2°C - Calm Calm 0.9 mph1.4 kmh -338605.1 mb 0.00 in0.0 mm 0.00 in/hr0.0 mm/hr 0.00 in0.0 mm
01:57 AM 54.7°F12.6°C 47.0°F8.3°C 75% Calm Calm 0.9 mph1.4 kmh 29.74 in1007.1 mb 0.00 in0.0 mm 0.00 in/hr0.0 mm/hr 0.00 in0.0 mm
02:02 AM 54.5°F12.5°C 47.1°F8.4°C 76% Calm Calm 1.3 mph2.1 kmh 29.74 in1007.1 mb 0.00 in0.0 mm 0.00 in/hr0.0 mm/hr 0.00 in0.0 mm
02:07 AM 54.4°F12.4°C 47.0°F8.3°C 76% Calm Calm 1.3 mph2.1 kmh 29.74 in1007.1 mb 0.00 in0.0 mm 0.00 in/hr0.0 mm/hr 0.00 in0.0 mm
02:12 AM 54.0°F12.2°C 46.4°F8.0°C 75% Calm Calm -- 29.74 in1007.1 mb 0.00 in0.0 mm 0.00 in/hr0.0 mm/hr 0.00 in0.0 mm
02:17 AM 54.0°F12.2°C 46.3°F7.9°C 76% Calm Calm -- 29.74 in1007.1 mb 0.00 in0.0 mm 0.00 in/hr0.0 mm/hr 0.00 in0.0 mm
02:22 AM 53.9°F12.2°C 46.4°F8.0°C 76% Calm Calm -- 29.74 in1007.1 mb 0.00 in0.0 mm 0.00 in/hr0.0 mm/hr 0.00 in0.0 mm
02:27 AM 53.8°F12.1°C 46.4°F8.0°C 76% Calm Calm -- 29.74 in1007.1 mb 0.00 in0.0 mm 0.00 in/hr0.0 mm/hr 0.00 in0.0 mm
02:32 AM 53.6°F12.0°C 45.9°F7.7°C 76% Calm Calm -- 29.74 in1007.1 mb 0.00 in0.0 mm 0.00 in/hr0.0 mm/hr 0.00 in0.0 mm
02:37 AM 53.5°F11.9°C 46.1°F7.8°C 76% Calm Calm -- 29.74 in1007.1 mb 0.00 in0.0 mm 0.00 in/hr0.0 mm/hr 0.00 in0.0 mm
02:42 AM 53.3°F11.8°C 46.3°F7.9°C 77% Calm Calm -- 29.74 in1007.1 mb 0.00 in0.0 mm 0.00 in/hr0.0 mm/hr 0.00 in0.0 mm
02:47 AM -5537.2°C -5537.2°C - Calm Calm -- 29.74 in1007.1 mb 0.00 in0.0 mm 0.00 in/hr0.0 mm/hr 0.00 in0.0 mm
02:52 AM 53.1°F11.7°C 46.1°F7.8°C 77% Calm Calm -- 29.74 in1007.1 mb 0.00 in0.0 mm 0.00 in/hr0.0 mm/hr 0.00 in0.0 mm
02:57 AM 53.0°F11.7°C 46.3°F7.9°C 78% Calm Calm -- 29.74 in1007.1 mb 0.00 in0.0 mm 0.00 in/hr0.0 mm/hr 0.00 in0.0 mm
03:02 AM 52.9°F11.6°C 46.2°F7.9°C 78% Calm Calm -- 29.74 in1007.1 mb 0.00 in0.0 mm 0.00 in/hr0.0 mm/hr 0.00 in0.0 mm
03:07 AM 53.0°F11.7°C 46.7°F8.2°C 79% Calm Calm -- 29.74 in1007.1 mb 0.00 in0.0 mm 0.00 in/hr0.0 mm/hr 0.00 in0.0 mm
03:12 AM 53.0°F11.7°C 46.8°F8.2°C 80% Calm Calm -- 29.74 in1007.1 mb 0.00 in0.0 mm 0.00 in/hr0.0 mm/hr 0.00 in0.0 mm
03:17 AM 53.1°F11.7°C 47.3°F8.5°C 81% Calm Calm -- 29.74 in1007.1 mb 0.00 in0.0 mm 0.00 in/hr0.0 mm/hr 0.00 in0.0 mm
03:22 AM 52.9°F11.6°C 46.9°F8.3°C 80% Calm Calm -- 29.74 in1007.1 mb 0.00 in0.0 mm 0.00 in/hr0.0 mm/hr 0.00 in0.0 mm
03:27 AM 52.8°F11.6°C 47.1°F8.4°C 81% Calm Calm -- 29.74 in1007.1 mb 0.00 in0.0 mm 0.00 in/hr0.0 mm/hr 0.00 in0.0 mm
03:32 AM 52.7°F11.5°C 47.1°F8.4°C 81% Calm Calm -- 29.74 in1007.1 mb 0.00 in0.0 mm 0.00 in/hr0.0 mm/hr 0.00 in0.0 mm
03:37 AM 52.7°F11.5°C 47.1°F8.4°C 81% Calm Calm -- 29.74 in1007.1 mb 0.00 in0.0 mm 0.00 in/hr0.0 mm/hr 0.00 in0.0 mm
03:42 AM 52.6°F11.4°C 47.0°F8.3°C 81% Calm Calm -- 29.74 in1007.1 mb 0.00 in0.0 mm 0.00 in/hr0.0 mm/hr 0.00 in0.0 mm
03:47 AM 52.5°F11.4°C 46.9°F8.3°C 81% Calm Calm -- 29.74 in1007.1 mb 0.00 in0.0 mm 0.00 in/hr0.0 mm/hr 0.00 in0.0 mm
03:52 AM 52.4°F11.3°C 46.8°F8.2°C 81% Calm Calm -- 29.74 in1007.1 mb 0.00 in0.0 mm 0.00 in/hr0.0 mm/hr 0.00 in0.0 mm
03:57 AM 52.3°F11.3°C 46.7°F8.2°C 81% Calm Calm -- 29.74 in1007.1 mb 0.00 in0.0 mm 0.00 in/hr0.0 mm/hr 0.00 in0.0 mm
04:02 AM 52.2°F11.2°C 46.7°F8.2°C 81% Calm Calm -- 29.74 in1007.1 mb 0.00 in0.0 mm 0.00 in/hr0.0 mm/hr 0.00 in0.0 mm
04:07 AM 52.0°F11.1°C 46.6°F8.1°C 82% Calm Calm -- 29.71 in1006.1 mb 0.00 in0.0 mm 0.00 in/hr0.0 mm/hr 0.00 in0.0 mm
04:12 AM 51.8°F11.0°C 46.5°F8.1°C 82% Calm Calm -- 29.71 in1006.1 mb 0.00 in0.0 mm 0.00 in/hr0.0 mm/hr 0.00 in0.0 mm
04:17 AM 51.6°F10.9°C 46.4°F8.0°C 82% Calm Calm -- 29.71 in1006.1 mb 0.00 in0.0 mm 0.00 in/hr0.0 mm/hr 0.00 in0.0 mm
04:22 AM 51.5°F10.8°C 46.6°F8.1°C 82% Calm Calm -- 29.74 in1007.1 mb 0.00 in0.0 mm 0.00 in/hr0.0 mm/hr 0.00 in0.0 mm
04:27 AM 51.4°F10.8°C 46.6°F8.1°C 83% Calm Calm -- 29.74 in1007.1 mb 0.00 in0.0 mm 0.00 in/hr0.0 mm/hr 0.00 in0.0 mm
04:32 AM 51.3°F10.7°C 46.4°F8.0°C 83% Calm Calm -- 29.74 in1007.1 mb 0.00 in0.0 mm 0.00 in/hr0.0 mm/hr 0.00 in0.0 mm
04:37 AM 51.2°F10.7°C 46.3°F7.9°C 83% Calm Calm -- 29.74 in1007.1 mb 0.00 in0.0 mm 0.00 in/hr0.0 mm/hr 0.00 in0.0 mm
04:42 AM 51.1°F10.6°C 46.5°F8.1°C 84% Calm Calm -- 29.74 in1007.1 mb 0.00 in0.0 mm 0.00 in/hr0.0 mm/hr 0.00 in0.0 mm
04:47 AM 51.1°F10.6°C 46.6°F8.1°C 84% Calm Calm -- 29.74 in1007.1 mb 0.00 in0.0 mm 0.00 in/hr0.0 mm/hr 0.00 in0.0 mm
04:52 AM 50.9°F10.5°C 46.4°F8.0°C 84% Calm Calm -- 29.74 in1007.1 mb 0.00 in0.0 mm 0.00 in/hr0.0 mm/hr 0.00 in0.0 mm
04:57 AM 51.0°F10.6°C 46.5°F8.1°C 84% Calm Calm -- 29.74 in1007.1 mb 0.00 in0.0 mm 0.00 in/hr0.0 mm/hr 0.00 in0.0 mm
05:02 AM 51.1°F10.6°C 46.7°F8.2°C 86% Calm Calm -- 29.74 in1007.1 mb 0.00 in0.0 mm 0.00 in/hr0.0 mm/hr 0.00 in0.0 mm
05:07 AM 51.2°F10.7°C 47.0°F8.3°C 86% Calm Calm -- 29.74 in1007.1 mb 0.00 in0.0 mm 0.00 in/hr0.0 mm/hr 0.00 in0.0 mm
05:12 AM 51.4°F10.8°C 47.2°F8.4°C 86% 0.4 mph S0.6 kmh S 1.6 mph2.6 kmh 29.74 in1007.1 mb 0.00 in0.0 mm 0.00 in/hr0.0 mm/hr 0.00 in0.0 mm
05:17 AM 51.6°F10.9°C 47.4°F8.6°C 86% Calm Calm 1.6 mph2.6 kmh 29.74 in1007.1 mb 0.00 in0.0 mm 0.00 in/hr0.0 mm/hr 0.00 in0.0 mm
05:22 AM 51.9°F11.1°C 47.5°F8.6°C 86% 1.2 mph SSW1.9 kmh SSW 2.5 mph4.0 kmh 29.74 in1007.1 mb 0.00 in0.0 mm 0.00 in/hr0.0 mm/hr 0.00 in0.0 mm
05:27 AM 52.0°F11.1°C 47.7°F8.7°C 86% Calm Calm 2.5 mph4.0 kmh 29.74 in1007.1 mb 0.00 in0.0 mm 0.00 in/hr0.0 mm/hr 0.00 in0.0 mm
05:32 AM 52.0°F11.1°C 47.8°F8.8°C 86% Calm Calm -- 29.74 in1007.1 mb 0.00 in0.0 mm 0.00 in/hr0.0 mm/hr 0.00 in0.0 mm
05:37 AM 52.2°F11.2°C 47.7°F8.7°C 84% Calm Calm -- 29.74 in1007.1 mb 0.00 in0.0 mm 0.00 in/hr0.0 mm/hr 0.00 in0.0 mm
05:42 AM 52.5°F11.4°C 48.0°F8.9°C 84% Calm Calm -- 29.74 in1007.1 mb 0.00 in0.0 mm 0.00 in/hr0.0 mm/hr 0.00 in0.0 mm
05:47 AM 52.5°F11.4°C 48.0°F8.9°C 84% 0.5 mph SW0.8 kmh SW 1.6 mph2.6 kmh 29.74 in1007.1 mb 0.00 in0.0 mm 0.00 in/hr0.0 mm/hr 0.00 in0.0 mm
05:52 AM 52.5°F11.4°C 47.8°F8.8°C 83% Calm Calm 1.6 mph2.6 kmh 29.74 in1007.1 mb 0.00 in0.0 mm 0.00 in/hr0.0 mm/hr 0.00 in0.0 mm
05:57 AM 52.5°F11.4°C 47.6°F8.7°C 83% Calm Calm 1.1 mph1.8 kmh 29.74 in1007.1 mb 0.00 in0.0 mm 0.00 in/hr0.0 mm/hr 0.00 in0.0 mm
06:02 AM 52.7°F11.5°C 47.8°F8.8°C 83% Calm Calm -- 29.74 in1007.1 mb 0.00 in0.0 mm 0.00 in/hr0.0 mm/hr 0.00 in0.0 mm
06:07 AM 52.7°F11.5°C 47.8°F8.8°C 83% Calm Calm -- 29.74 in1007.1 mb 0.00 in0.0 mm 0.00 in/hr0.0 mm/hr 0.00 in0.0 mm
06:12 AM 52.7°F11.5°C 47.7°F8.7°C 83% Calm Calm -- 29.74 in1007.1 mb 0.00 in0.0 mm 0.00 in/hr0.0 mm/hr 0.00 in0.0 mm
06:17 AM 52.8°F11.6°C 47.9°F8.8°C 83% Calm Calm -- 29.74 in1007.1 mb 0.00 in0.0 mm 0.00 in/hr0.0 mm/hr 0.00 in0.0 mm
06:22 AM 52.9°F11.6°C 47.7°F8.7°C 82% Calm Calm -- 29.77 in1008.1 mb 0.00 in0.0 mm 0.00 in/hr0.0 mm/hr 0.00 in0.0 mm
06:27 AM 52.9°F11.6°C 47.8°F8.8°C 83% 0.4 mph NW0.6 kmh NW 1.1 mph1.8 kmh 29.77 in1008.1 mb 0.00 in0.0 mm 0.00 in/hr0.0 mm/hr 0.00 in0.0 mm
06:32 AM 52.9°F11.6°C 47.8°F8.8°C 82% Calm Calm 1.1 mph1.8 kmh 29.77 in1008.1 mb 0.00 in0.0 mm 0.00 in/hr0.0 mm/hr 0.00 in0.0 mm
06:37 AM 52.9°F11.6°C 47.9°F8.8°C 82% Calm Calm -- 29.77 in1008.1 mb 0.00 in0.0 mm 0.00 in/hr0.0 mm/hr 0.00 in0.0 mm
06:42 AM 53.1°F11.7°C 48.0°F8.9°C 83% 0.2 mph SW0.3 kmh SW 1.6 mph2.6 kmh 29.77 in1008.1 mb 0.00 in0.0 mm 0.00 in/hr0.0 mm/hr 0.00 in0.0 mm
06:47 AM 53.1°F11.7°C 47.8°F8.8°C 82% Calm Calm 1.6 mph2.6 kmh 29.77 in1008.1 mb 0.00 in0.0 mm 0.00 in/hr0.0 mm/hr 0.00 in0.0 mm
06:52 AM 53.1°F11.7°C 47.8°F8.8°C 82% Calm Calm 1.3 mph2.1 kmh 29.77 in1008.1 mb 0.00 in0.0 mm 0.00 in/hr0.0 mm/hr 0.00 in0.0 mm
06:57 AM 53.3°F11.8°C 48.1°F8.9°C 82% Calm Calm 1.1 mph1.8 kmh 29.77 in1008.1 mb 0.00 in0.0 mm 0.00 in/hr0.0 mm/hr 0.00 in0.0 mm
07:02 AM 53.6°F12.0°C 48.2°F9.0°C 82% Calm Calm 2.2 mph3.5 kmh 29.77 in1008.1 mb 0.00 in0.0 mm 0.00 in/hr0.0 mm/hr 0.00 in0.0 mm
07:07 AM 53.7°F12.1°C 48.4°F9.1°C 82% 0.4 mph SW0.6 kmh SW 2.7 mph4.3 kmh 29.77 in1008.1 mb 0.00 in0.0 mm 0.00 in/hr0.0 mm/hr 0.00 in0.0 mm
07:12 AM 53.8°F12.1°C 48.5°F9.2°C 82% 1.2 mph SW1.9 kmh SW 2.7 mph4.3 kmh 29.77 in1008.1 mb 0.00 in0.0 mm 0.00 in/hr0.0 mm/hr 0.00 in0.0 mm
07:17 AM 53.9°F12.2°C 48.6°F9.2°C 82% Calm Calm 2.5 mph4.0 kmh 29.77 in1008.1 mb 0.00 in0.0 mm 0.00 in/hr0.0 mm/hr 0.00 in0.0 mm
07:22 AM 54.0°F12.2°C 48.4°F9.1°C 81% 1.0 mph SW1.6 kmh SW 2.7 mph4.3 kmh 29.77 in1008.1 mb 0.00 in0.0 mm 0.00 in/hr0.0 mm/hr 0.00 in0.0 mm
07:27 AM 54.0°F12.2°C 48.5°F9.2°C 82% 1.1 mph SSW1.8 kmh SSW 2.7 mph4.3 kmh 29.77 in1008.1 mb 0.00 in0.0 mm 0.00 in/hr0.0 mm/hr 0.00 in0.0 mm
07:32 AM 54.0°F12.2°C 48.7°F9.3°C 82% 1.4 mph WSW2.3 kmh WSW 2.7 mph4.3 kmh 29.77 in1008.1 mb 0.00 in0.0 mm 0.00 in/hr0.0 mm/hr 0.00 in0.0 mm
07:37 AM 54.0°F12.2°C 48.7°F9.3°C 82% 1.2 mph SSW1.9 kmh SSW 2.7 mph4.3 kmh 29.77 in1008.1 mb 0.00 in0.0 mm 0.00 in/hr0.0 mm/hr 0.00 in0.0 mm
07:42 AM 53.8°F12.1°C 48.4°F9.1°C 81% 2.6 mph S4.2 kmh S 4.3 mph6.9 kmh 29.77 in1008.1 mb 0.00 in0.0 mm 0.00 in/hr0.0 mm/hr 0.00 in0.0 mm
07:47 AM 53.6°F12.0°C 47.6°F8.7°C 80% 0.6 mph SW1.0 kmh SW 4.3 mph6.9 kmh 29.77 in1008.1 mb 0.00 in0.0 mm 0.00 in/hr0.0 mm/hr 0.00 in0.0 mm
07:52 AM 53.5°F11.9°C 47.3°F8.5°C 80% 1.5 mph SSW2.4 kmh SSW 3.6 mph5.8 kmh 29.80 in1009.1 mb 0.00 in0.0 mm 0.00 in/hr0.0 mm/hr 0.00 in0.0 mm
07:57 AM 53.6°F12.0°C 47.3°F8.5°C 79% 0.5 mph WSW0.8 kmh WSW 3.6 mph5.8 kmh 29.80 in1009.1 mb 0.00 in0.0 mm 0.00 in/hr0.0 mm/hr 0.00 in0.0 mm
08:02 AM 53.6°F12.0°C 47.1°F8.4°C 78% 2.3 mph SW3.7 kmh SW 3.1 mph5.0 kmh 29.80 in1009.1 mb 0.00 in0.0 mm 0.00 in/hr0.0 mm/hr 0.00 in0.0 mm
08:07 AM 53.6°F12.0°C 46.9°F8.3°C 78% 1.8 mph S2.9 kmh S 4.3 mph6.9 kmh 29.80 in1009.1 mb 0.00 in0.0 mm 0.00 in/hr0.0 mm/hr 0.00 in0.0 mm
08:12 AM 53.9°F12.2°C 46.9°F8.3°C 78% 0.5 mph SW0.8 kmh SW 4.3 mph6.9 kmh 29.80 in1009.1 mb 0.00 in0.0 mm 0.00 in/hr0.0 mm/hr 0.00 in0.0 mm
08:17 AM 54.0°F12.2°C 46.9°F8.3°C 77% 1.7 mph SSW2.7 kmh SSW 6.3 mph10.1 kmh 29.80 in1009.1 mb 0.00 in0.0 mm 0.00 in/hr0.0 mm/hr 0.00 in0.0 mm
08:22 AM 54.2°F12.3°C 47.1°F8.4°C 76% 0.4 mph SW0.6 kmh SW 6.3 mph10.1 kmh 29.80 in1009.1 mb 0.00 in0.0 mm 0.00 in/hr0.0 mm/hr 0.00 in0.0 mm
08:27 AM 54.5°F12.5°C 46.7°F8.2°C 75% 1.7 mph SW2.7 kmh SW 3.8 mph6.1 kmh 29.80 in1009.1 mb 0.00 in0.0 mm 0.00 in/hr0.0 mm/hr 0.00 in0.0 mm
08:32 AM 54.4°F12.4°C 46.6°F8.1°C 75% 2.3 mph WSW3.7 kmh WSW 5.4 mph8.7 kmh 29.80 in1009.1 mb 0.00 in0.0 mm 0.00 in/hr0.0 mm/hr 0.00 in0.0 mm
08:37 AM 54.3°F12.4°C 46.6°F8.1°C 75% 1.4 mph WSW2.3 kmh WSW 5.4 mph8.7 kmh 29.80 in1009.1 mb 0.00 in0.0 mm 0.00 in/hr0.0 mm/hr 0.00 in0.0 mm
08:42 AM 54.4°F12.4°C 46.7°F8.2°C 75% 3.0 mph S4.8 kmh S 8.7 mph14.0 kmh 29.80 in1009.1 mb 0.00 in0.0 mm 0.00 in/hr0.0 mm/hr 0.00 in0.0 mm
08:47 AM 54.6°F12.6°C 46.8°F8.2°C 75% 1.0 mph WNW1.6 kmh WNW 8.7 mph14.0 kmh 29.80 in1009.1 mb 0.00 in0.0 mm 0.00 in/hr0.0 mm/hr 0.00 in0.0 mm
08:52 AM 54.9°F12.7°C 46.9°F8.3°C 74% 3.0 mph SW4.8 kmh SW 5.8 mph9.3 kmh 29.80 in1009.1 mb 0.00 in0.0 mm 0.00 in/hr0.0 mm/hr 0.00 in0.0 mm
08:57 AM 54.9°F12.7°C 46.7°F8.2°C 74% 2.2 mph SSW3.5 kmh SSW 5.8 mph9.3 kmh 29.80 in1009.1 mb 0.00 in0.0 mm 0.00 in/hr0.0 mm/hr 0.00 in0.0 mm
09:02 AM 55.0°F12.8°C 46.9°F8.3°C 74% 1.3 mph WSW2.1 kmh WSW 5.4 mph8.7 kmh 29.80 in1009.1 mb 0.00 in0.0 mm 0.00 in/hr0.0 mm/hr 0.00 in0.0 mm
09:07 AM 55.1°F12.8°C 47.0°F8.3°C 74% 1.1 mph SW1.8 kmh SW 5.4 mph8.7 kmh 29.80 in1009.1 mb 0.00 in0.0 mm 0.00 in/hr0.0 mm/hr 0.00 in0.0 mm
09:12 AM 55.0°F12.8°C 46.9°F8.3°C 74% 2.9 mph SSW4.7 kmh SSW 4.3 mph6.9 kmh 29.80 in1009.1 mb 0.00 in0.0 mm 0.00 in/hr0.0 mm/hr 0.00 in0.0 mm
09:17 AM 54.7°F12.6°C 46.6°F8.1°C 74% 1.2 mph W1.9 kmh W 4.3 mph6.9 kmh 29.80 in1009.1 mb 0.00 in0.0 mm 0.00 in/hr0.0 mm/hr 0.00 in0.0 mm
09:22 AM 54.7°F12.6°C 46.6°F8.1°C 74% 1.7 mph SSW2.7 kmh SSW 3.6 mph5.8 kmh 29.80 in1009.1 mb 0.00 in0.0 mm 0.00 in/hr0.0 mm/hr 0.00 in0.0 mm
09:27 AM 54.7°F12.6°C 46.6°F8.1°C 74% 1.8 mph SW2.9 kmh SW 3.8 mph6.1 kmh 29.80 in1009.1 mb 0.00 in0.0 mm 0.00 in/hr0.0 mm/hr 0.00 in0.0 mm
09:32 AM 54.6°F12.6°C 46.5°F8.1°C 74% 0.4 mph SSW0.6 kmh SSW 3.8 mph6.1 kmh 29.80 in1009.1 mb 0.00 in0.0 mm 0.00 in/hr0.0 mm/hr 0.00 in0.0 mm
09:37 AM 54.8°F12.7°C 46.7°F8.2°C 74% 1.0 mph S1.6 kmh S 3.6 mph5.8 kmh 29.80 in1009.1 mb 0.00 in0.0 mm 0.00 in/hr0.0 mm/hr 0.00 in0.0 mm
09:42 AM 55.0°F12.8°C 46.9°F8.3°C 74% 1.1 mph S1.8 kmh S 4.0 mph6.4 kmh 29.80 in1009.1 mb 0.00 in0.0 mm 0.00 in/hr0.0 mm/hr 0.00 in0.0 mm
09:47 AM 54.8°F12.7°C 46.3°F7.9°C 73% 3.5 mph SW5.6 kmh SW 7.4 mph11.9 kmh 29.80 in1009.1 mb 0.00 in0.0 mm 0.00 in/hr0.0 mm/hr 0.00 in0.0 mm
09:52 AM 54.6°F12.6°C 46.2°F7.9°C 73% 1.8 mph WSW2.9 kmh WSW 7.4 mph11.9 kmh 29.80 in1009.1 mb 0.00 in0.0 mm 0.00 in/hr0.0 mm/hr 0.00 in0.0 mm
09:57 AM 54.8°F12.7°C 46.3°F7.9°C 73% 2.3 mph SW3.7 kmh SW 5.8 mph9.3 kmh 29.80 in1009.1 mb 0.00 in0.0 mm 0.00 in/hr0.0 mm/hr 0.00 in0.0 mm
10:02 AM -5537.2°C -5537.2°C - 2.3 mph S3.7 kmh S 5.8 mph9.3 kmh 29.80 in1009.1 mb 0.00 in0.0 mm 0.00 in/hr0.0 mm/hr 0.00 in0.0 mm
10:07 AM 54.7°F12.6°C 46.2°F7.9°C 73% 3.6 mph SSW5.8 kmh SSW 5.4 mph8.7 kmh 29.80 in1009.1 mb 0.00 in0.0 mm 0.00 in/hr0.0 mm/hr 0.00 in0.0 mm
10:12 AM 54.9°F12.7°C 46.4°F8.0°C 73% 2.8 mph SW4.5 kmh SW 6.5 mph10.5 kmh 29.80 in1009.1 mb 0.00 in0.0 mm 0.00 in/hr0.0 mm/hr 0.00 in0.0 mm
10:17 AM 55.3°F12.9°C 46.5°F8.1°C 72% 1.2 mph WSW1.9 kmh WSW 7.4 mph11.9 kmh 29.80 in1009.1 mb 0.00 in0.0 mm 0.00 in/hr0.0 mm/hr 0.00 in0.0 mm
10:22 AM 55.6°F13.1°C 46.6°F8.1°C 71% 3.5 mph S5.6 kmh S 7.6 mph12.2 kmh 29.80 in1009.1 mb 0.00 in0.0 mm 0.00 in/hr0.0 mm/hr 0.00 in0.0 mm
10:27 AM 55.8°F13.2°C 46.3°F7.9°C 70% 3.1 mph SW5.0 kmh SW 7.6 mph12.2 kmh 29.80 in1009.1 mb 0.00 in0.0 mm 0.00 in/hr0.0 mm/hr 0.00 in0.0 mm
10:32 AM 55.9°F13.3°C 46.3°F7.9°C 70% 3.0 mph S4.8 kmh S 7.8 mph12.6 kmh 29.80 in1009.1 mb 0.00 in0.0 mm 0.00 in/hr0.0 mm/hr 0.00 in0.0 mm
10:37 AM 56.1°F13.4°C 46.5°F8.1°C 70% 3.3 mph SSW5.3 kmh SSW 7.8 mph12.6 kmh 29.77 in1008.1 mb 0.00 in0.0 mm 0.00 in/hr0.0 mm/hr 0.00 in0.0 mm
10:42 AM 56.2°F13.4°C 46.6°F8.1°C 70% 2.5 mph S4.0 kmh S 6.7 mph10.8 kmh 29.77 in1008.1 mb 0.00 in0.0 mm 0.00 in/hr0.0 mm/hr 0.00 in0.0 mm
10:47 AM 56.3°F13.5°C 46.4°F8.0°C 69% 2.0 mph SW3.2 kmh SW 6.7 mph10.8 kmh 29.77 in1008.1 mb 0.00 in0.0 mm 0.00 in/hr0.0 mm/hr 0.00 in0.0 mm
10:52 AM 56.5°F13.6°C 46.5°F8.1°C 69% 2.2 mph WSW3.5 kmh WSW 6.7 mph10.8 kmh 29.77 in1008.1 mb 0.00 in0.0 mm 0.00 in/hr0.0 mm/hr 0.00 in0.0 mm
10:57 AM 56.7°F13.7°C 46.2°F7.9°C 68% 2.8 mph SW4.5 kmh SW 6.7 mph10.8 kmh 29.77 in1008.1 mb 0.00 in0.0 mm 0.00 in/hr0.0 mm/hr 0.00 in0.0 mm
11:02 AM 56.5°F13.6°C 45.9°F7.7°C 68% 1.7 mph W2.7 kmh W 8.9 mph14.3 kmh 29.77 in1008.1 mb 0.00 in0.0 mm 0.00 in/hr0.0 mm/hr 0.00 in0.0 mm
11:07 AM 56.8°F13.8°C 46.3°F7.9°C 68% 2.2 mph S3.5 kmh S 8.9 mph14.3 kmh 29.80 in1009.1 mb 0.00 in0.0 mm 0.00 in/hr0.0 mm/hr 0.00 in0.0 mm
11:12 AM 57.0°F13.9°C 46.2°F7.9°C 67% 3.5 mph SW5.6 kmh SW 8.5 mph13.7 kmh 29.80 in1009.1 mb 0.00 in0.0 mm 0.00 in/hr0.0 mm/hr 0.00 in0.0 mm
11:17 AM 56.9°F13.8°C 45.8°F7.7°C 66% 3.5 mph SSW5.6 kmh SSW 8.5 mph13.7 kmh 29.80 in1009.1 mb 0.00 in0.0 mm 0.00 in/hr0.0 mm/hr 0.00 in0.0 mm
11:22 AM 56.8°F13.8°C 45.7°F7.6°C 66% 2.9 mph SW4.7 kmh SW 6.5 mph10.5 kmh 29.80 in1009.1 mb 0.00 in0.0 mm 0.00 in/hr0.0 mm/hr 0.00 in0.0 mm
11:27 AM 56.7°F13.7°C 45.6°F7.6°C 66% 3.5 mph S5.6 kmh S 8.1 mph13.0 kmh 29.80 in1009.1 mb 0.00 in0.0 mm 0.00 in/hr0.0 mm/hr 0.00 in0.0 mm
11:32 AM 56.6°F13.7°C 45.5°F7.5°C 67% 3.1 mph S5.0 kmh S 8.1 mph13.0 kmh 29.80 in1009.1 mb 0.00 in0.0 mm 0.00 in/hr0.0 mm/hr 0.00 in0.0 mm
11:37 AM 56.8°F13.8°C 46.0°F7.8°C 67% 0.7 mph SSW1.1 kmh SSW 7.8 mph12.6 kmh 29.80 in1009.1 mb 0.00 in0.0 mm 0.00 in/hr0.0 mm/hr 0.00 in0.0 mm
11:42 AM 56.8°F13.8°C 45.9°F7.7°C 66% 1.8 mph S2.9 kmh S 7.4 mph11.9 kmh 29.80 in1009.1 mb 0.00 in0.0 mm 0.00 in/hr0.0 mm/hr 0.00 in0.0 mm
11:47 AM 56.9°F13.8°C 45.8°F7.7°C 67% 4.1 mph SW6.6 kmh SW 6.5 mph10.5 kmh 29.80 in1009.1 mb 0.00 in0.0 mm 0.00 in/hr0.0 mm/hr 0.00 in0.0 mm
11:52 AM 56.8°F13.8°C 46.0°F7.8°C 67% 2.1 mph W3.4 kmh W 6.5 mph10.5 kmh 29.80 in1009.1 mb 0.00 in0.0 mm 0.00 in/hr0.0 mm/hr 0.00 in0.0 mm
11:57 AM 57.1°F13.9°C 46.1°F7.8°C 66% 1.8 mph SW2.9 kmh SW 4.3 mph6.9 kmh 29.80 in1009.1 mb 0.00 in0.0 mm 0.00 in/hr0.0 mm/hr 0.00 in0.0 mm
12:02 PM 57.5°F14.2°C 46.2°F7.9°C 66% 1.2 mph NW1.9 kmh NW 3.4 mph5.5 kmh 29.80 in1009.1 mb 0.00 in0.0 mm 0.00 in/hr0.0 mm/hr 0.00 in0.0 mm
12:07 PM 57.9°F14.4°C 46.7°F8.2°C 66% 1.5 mph SW2.4 kmh SW 3.4 mph5.5 kmh 29.80 in1009.1 mb 0.00 in0.0 mm 0.00 in/hr0.0 mm/hr 0.00 in0.0 mm
12:12 PM 58.1°F14.5°C 46.8°F8.2°C 65% 0.8 mph S1.3 kmh S 3.8 mph6.1 kmh 29.80 in1009.1 mb 0.00 in0.0 mm 0.00 in/hr0.0 mm/hr 0.00 in0.0 mm
12:17 PM 58.0°F14.4°C 46.3°F7.9°C 65% 2.8 mph S4.5 kmh S 3.8 mph6.1 kmh 29.80 in1009.1 mb 0.00 in0.0 mm 0.00 in/hr0.0 mm/hr 0.00 in0.0 mm
12:22 PM -5537.2°C -5537.2°C - 3.6 mph SE5.8 kmh SE 4.9 mph7.9 kmh 29.80 in1009.1 mb 0.00 in0.0 mm 0.00 in/hr0.0 mm/hr 0.00 in0.0 mm
12:27 PM 57.6°F14.2°C 45.9°F7.7°C 65% 1.9 mph SSW3.1 kmh SSW 4.9 mph7.9 kmh 29.80 in1009.1 mb 0.00 in0.0 mm 0.00 in/hr0.0 mm/hr 0.00 in0.0 mm
12:32 PM 57.7°F14.3°C 46.0°F7.8°C 65% 1.9 mph SSW3.1 kmh SSW 3.8 mph6.1 kmh 29.80 in1009.1 mb 0.00 in0.0 mm 0.00 in/hr0.0 mm/hr 0.00 in0.0 mm
12:37 PM 57.4°F14.1°C 45.8°F7.7°C 66% 3.0 mph SSW4.8 kmh SSW 6.3 mph10.1 kmh 29.77 in1008.1 mb 0.00 in0.0 mm 0.00 in/hr0.0 mm/hr 0.00 in0.0 mm
12:42 PM 57.4°F14.1°C 45.9°F7.7°C 65% 2.9 mph S4.7 kmh S 6.3 mph10.1 kmh 29.77 in1008.1 mb 0.00 in0.0 mm 0.00 in/hr0.0 mm/hr 0.00 in0.0 mm
12:47 PM 57.3°F14.1°C 45.7°F7.6°C 66% 2.3 mph S3.7 kmh S 4.9 mph7.9 kmh 29.77 in1008.1 mb 0.00 in0.0 mm 0.00 in/hr0.0 mm/hr 0.00 in0.0 mm
12:52 PM 57.4°F14.1°C 46.0°F7.8°C 65% 2.0 mph SW3.2 kmh SW 4.9 mph7.9 kmh 29.80 in1009.1 mb 0.00 in0.0 mm 0.00 in/hr0.0 mm/hr 0.00 in0.0 mm
12:57 PM 57.3°F14.1°C 46.0°F7.8°C 66% 2.3 mph S3.7 kmh S 4.3 mph6.9 kmh 29.80 in1009.1 mb 0.00 in0.0 mm 0.00 in/hr0.0 mm/hr 0.00 in0.0 mm
01:02 PM 57.6°F14.2°C 46.0°F7.8°C 65% 3.4 mph SSW5.5 kmh SSW 5.6 mph9.0 kmh 29.80 in1009.1 mb 0.00 in0.0 mm 0.00 in/hr0.0 mm/hr 0.00 in0.0 mm
01:07 PM 57.6°F14.2°C 46.0°F7.8°C 65% 1.9 mph W3.1 kmh W 5.6 mph9.0 kmh 29.80 in1009.1 mb 0.00 in0.0 mm 0.00 in/hr0.0 mm/hr 0.00 in0.0 mm
01:12 PM 58.0°F14.4°C 46.7°F8.2°C 66% 1.9 mph S3.1 kmh S 3.6 mph5.8 kmh 29.80 in1009.1 mb 0.00 in0.0 mm 0.00 in/hr0.0 mm/hr 0.00 in0.0 mm
01:17 PM 57.7°F14.3°C 45.7°F7.6°C 64% 2.8 mph SW4.5 kmh SW 4.3 mph6.9 kmh 29.80 in1009.1 mb 0.00 in0.0 mm 0.00 in/hr0.0 mm/hr 0.00 in0.0 mm
01:22 PM 57.6°F14.2°C 45.5°F7.5°C 64% 1.6 mph SW2.6 kmh SW 4.3 mph6.9 kmh 29.77 in1008.1 mb 0.00 in0.0 mm 0.00 in/hr0.0 mm/hr 0.00 in0.0 mm
01:27 PM 57.7°F14.3°C 45.7°F7.6°C 64% 2.0 mph SSW3.2 kmh SSW 4.9 mph7.9 kmh 29.77 in1008.1 mb 0.00 in0.0 mm 0.00 in/hr0.0 mm/hr 0.00 in0.0 mm
01:32 PM 57.7°F14.3°C 46.0°F7.8°C 65% 1.0 mph SW1.6 kmh SW 4.9 mph7.9 kmh 29.77 in1008.1 mb 0.00 in0.0 mm 0.00 in/hr0.0 mm/hr 0.00 in0.0 mm
01:37 PM 57.7°F14.3°C 46.1°F7.8°C 66% 2.5 mph SSE4.0 kmh SSE 3.6 mph5.8 kmh 29.80 in1009.1 mb 0.00 in0.0 mm 0.00 in/hr0.0 mm/hr 0.00 in0.0 mm
01:42 PM 57.3°F14.1°C 46.1°F7.8°C 67% 1.8 mph SSW2.9 kmh SSW 4.3 mph6.9 kmh 29.80 in1009.1 mb 0.00 in0.0 mm 0.00 in/hr0.0 mm/hr 0.00 in0.0 mm
01:47 PM 57.1°F13.9°C 46.5°F8.1°C 68% 2.8 mph SSW4.5 kmh SSW 4.3 mph6.9 kmh 29.80 in1009.1 mb 0.00 in0.0 mm 0.00 in/hr0.0 mm/hr 0.00 in0.0 mm
01:52 PM 56.8°F13.8°C 46.2°F7.9°C 68% 2.5 mph SW4.0 kmh SW 3.8 mph6.1 kmh 29.77 in1008.1 mb 0.00 in0.0 mm 0.00 in/hr0.0 mm/hr 0.00 in0.0 mm
01:57 PM 56.9°F13.8°C 46.4°F8.0°C 68% 1.1 mph WSW1.8 kmh WSW 3.8 mph6.1 kmh 29.77 in1008.1 mb 0.00 in0.0 mm 0.00 in/hr0.0 mm/hr 0.00 in0.0 mm
02:02 PM 57.2°F14.0°C 46.7°F8.2°C 68% 1.4 mph S2.3 kmh S 2.7 mph4.3 kmh 29.77 in1008.1 mb 0.00 in0.0 mm 0.00 in/hr0.0 mm/hr 0.00 in0.0 mm
02:07 PM 57.2°F14.0°C 46.7°F8.2°C 68% 3.4 mph E5.5 kmh E 5.4 mph8.7 kmh 29.80 in1009.1 mb 0.00 in0.0 mm 0.00 in/hr0.0 mm/hr 0.00 in0.0 mm
02:12 PM 57.0°F13.9°C 46.6°F8.1°C 68% 2.4 mph S3.9 kmh S 5.4 mph8.7 kmh 29.80 in1009.1 mb 0.00 in0.0 mm 0.00 in/hr0.0 mm/hr 0.00 in0.0 mm
02:17 PM 57.1°F13.9°C 46.9°F8.3°C 68% 2.1 mph NNE3.4 kmh NNE 4.7 mph7.6 kmh 29.80 in1009.1 mb 0.00 in0.0 mm 0.00 in/hr0.0 mm/hr 0.00 in0.0 mm
02:22 PM 57.2°F14.0°C 46.7°F8.2°C 68% 2.9 mph SSW4.7 kmh SSW 7.2 mph11.6 kmh 29.80 in1009.1 mb 0.00 in0.0 mm 0.00 in/hr0.0 mm/hr 0.00 in0.0 mm
02:27 PM 57.4°F14.1°C 46.9°F8.3°C 68% 2.7 mph SSW4.3 kmh SSW 12.1 mph19.5 kmh 29.80 in1009.1 mb 0.00 in0.0 mm 0.00 in/hr0.0 mm/hr 0.00 in0.0 mm
02:32 PM 57.3°F14.1°C 46.8°F8.2°C 68% 3.5 mph SSW5.6 kmh SSW 12.1 mph19.5 kmh 29.80 in1009.1 mb 0.00 in0.0 mm 0.00 in/hr0.0 mm/hr 0.00 in0.0 mm
02:37 PM 57.2°F14.0°C 46.7°F8.2°C 68% 2.8 mph WSW4.5 kmh WSW 9.6 mph15.4 kmh 29.80 in1009.1 mb 0.00 in0.0 mm 0.00 in/hr0.0 mm/hr 0.00 in0.0 mm
02:42 PM 57.3°F14.1°C 46.8°F8.2°C 68% 3.8 mph S6.1 kmh S 9.6 mph15.4 kmh 29.80 in1009.1 mb 0.00 in0.0 mm 0.00 in/hr0.0 mm/hr 0.00 in0.0 mm
02:47 PM 57.2°F14.0°C 47.1°F8.4°C 69% 2.4 mph SSW3.9 kmh SSW 6.5 mph10.5 kmh 29.80 in1009.1 mb 0.00 in0.0 mm 0.00 in/hr0.0 mm/hr 0.00 in0.0 mm
02:52 PM 57.3°F14.1°C 47.3°F8.5°C 69% 1.3 mph S2.1 kmh S 4.9 mph7.9 kmh 29.80 in1009.1 mb 0.00 in0.0 mm 0.00 in/hr0.0 mm/hr 0.00 in0.0 mm
02:57 PM 57.5°F14.2°C 47.4°F8.6°C 69% 1.1 mph SSW1.8 kmh SSW 3.8 mph6.1 kmh 29.80 in1009.1 mb 0.00 in0.0 mm 0.00 in/hr0.0 mm/hr 0.00 in0.0 mm
03:02 PM 57.4°F14.1°C 47.4°F8.6°C 69% 0.8 mph SSW1.3 kmh SSW 3.8 mph6.1 kmh 29.80 in1009.1 mb 0.00 in0.0 mm 0.00 in/hr0.0 mm/hr 0.00 in0.0 mm
03:07 PM 57.5°F14.2°C 47.5°F8.6°C 69% 0.9 mph WNW1.4 kmh WNW 2.9 mph4.7 kmh 29.80 in1009.1 mb 0.00 in0.0 mm 0.00 in/hr0.0 mm/hr 0.00 in0.0 mm
03:12 PM 57.6°F14.2°C 47.6°F8.7°C 70% 2.1 mph SSW3.4 kmh SSW 4.7 mph7.6 kmh 29.80 in1009.1 mb 0.00 in0.0 mm 0.00 in/hr0.0 mm/hr 0.00 in0.0 mm
03:17 PM 57.3°F14.1°C 47.7°F8.7°C 71% 3.1 mph SW5.0 kmh SW 4.7 mph7.6 kmh 29.80 in1009.1 mb 0.00 in0.0 mm 0.00 in/hr0.0 mm/hr 0.00 in0.0 mm
03:22 PM 56.8°F13.8°C 47.5°F8.6°C 71% 2.3 mph WSW3.7 kmh WSW 9.8 mph15.8 kmh 29.80 in1009.1 mb 0.00 in0.0 mm 0.00 in/hr0.0 mm/hr 0.00 in0.0 mm
03:27 PM 56.8°F13.8°C 47.5°F8.6°C 71% 1.4 mph SW2.3 kmh SW 9.8 mph15.8 kmh 29.80 in1009.1 mb 0.00 in0.0 mm 0.00 in/hr0.0 mm/hr 0.00 in0.0 mm
03:32 PM 56.7°F13.7°C 47.5°F8.6°C 72% 2.5 mph SSW4.0 kmh SSW 5.4 mph8.7 kmh 29.80 in1009.1 mb 0.00 in0.0 mm 0.00 in/hr0.0 mm/hr 0.00 in0.0 mm
03:37 PM 56.4°F13.6°C 47.9°F8.8°C 74% 3.0 mph SSW4.8 kmh SSW 5.4 mph8.7 kmh 29.80 in1009.1 mb 0.00 in0.0 mm 0.00 in/hr0.0 mm/hr 0.00 in0.0 mm
03:42 PM -5537.2°C -5537.2°C - 1.0 mph SSW1.6 kmh SSW 5.4 mph8.7 kmh -338605.1 mb 0.00 in0.0 mm 0.00 in/hr0.0 mm/hr 0.00 in0.0 mm
03:47 PM 55.9°F13.3°C 48.8°F9.3°C 77% 1.6 mph S2.6 kmh S 4.0 mph6.4 kmh 29.80 in1009.1 mb 0.00 in0.0 mm 0.00 in/hr0.0 mm/hr 0.00 in0.0 mm
03:52 PM 55.7°F13.2°C 49.0°F9.4°C 79% 2.2 mph SSW3.5 kmh SSW 4.0 mph6.4 kmh 29.80 in1009.1 mb 0.00 in0.0 mm 0.00 in/hr0.0 mm/hr 0.00 in0.0 mm
03:57 PM 55.7°F13.2°C 49.2°F9.6°C 79% Calm Calm 3.8 mph6.1 kmh 29.80 in1009.1 mb 0.00 in0.0 mm 0.00 in/hr0.0 mm/hr 0.00 in0.0 mm
04:02 PM 55.8°F13.2°C 49.4°F9.7°C 79% 1.8 mph SSW2.9 kmh SSW 3.4 mph5.5 kmh 29.80 in1009.1 mb 0.00 in0.0 mm 0.00 in/hr0.0 mm/hr 0.00 in0.0 mm
04:07 PM 55.5°F13.1°C 49.5°F9.7°C 80% 1.2 mph NW1.9 kmh NW 3.6 mph5.8 kmh 29.80 in1009.1 mb 0.00 in0.0 mm 0.00 in/hr0.0 mm/hr 0.00 in0.0 mm
04:12 PM 55.5°F13.1°C 49.7°F9.8°C 81% 2.0 mph S3.2 kmh S 3.6 mph5.8 kmh 29.80 in1009.1 mb 0.00 in0.0 mm 0.00 in/hr0.0 mm/hr 0.00 in0.0 mm
04:17 PM 55.5°F13.1°C 50.0°F10.0°C 81% 1.5 mph S2.4 kmh S 3.1 mph5.0 kmh 29.80 in1009.1 mb 0.00 in0.0 mm 0.00 in/hr0.0 mm/hr 0.00 in0.0 mm
04:22 PM 55.6°F13.1°C 49.9°F9.9°C 81% 2.2 mph S3.5 kmh S 3.6 mph5.8 kmh 29.77 in1008.1 mb 0.00 in0.0 mm 0.00 in/hr0.0 mm/hr 0.00 in0.0 mm
04:27 PM 55.6°F13.1°C 49.9°F9.9°C 81% 0.4 mph S0.6 kmh S 3.6 mph5.8 kmh 29.77 in1008.1 mb 0.00 in0.0 mm 0.00 in/hr0.0 mm/hr 0.00 in0.0 mm
04:32 PM 56.2°F13.4°C 50.4°F10.2°C 80% 0.5 mph NW0.8 kmh NW 2.7 mph4.3 kmh 29.77 in1008.1 mb 0.00 in0.0 mm 0.00 in/hr0.0 mm/hr 0.00 in0.0 mm
04:37 PM 56.7°F13.7°C 50.9°F10.5°C 80% Calm Calm 2.5 mph4.0 kmh 29.74 in1007.1 mb 0.00 in0.0 mm 0.00 in/hr0.0 mm/hr 0.00 in0.0 mm
04:42 PM 57.2°F14.0°C 51.1°F10.6°C 79% 0.5 mph SW0.8 kmh SW 3.4 mph5.5 kmh 29.74 in1007.1 mb 0.00 in0.0 mm 0.00 in/hr0.0 mm/hr 0.00 in0.0 mm
04:47 PM 57.3°F14.1°C 50.8°F10.4°C 79% 1.6 mph SW2.6 kmh SW 3.4 mph5.5 kmh 29.74 in1007.1 mb 0.00 in0.0 mm 0.00 in/hr0.0 mm/hr 0.00 in0.0 mm
04:52 PM 57.3°F14.1°C 50.5°F10.3°C 78% 1.0 mph NW1.6 kmh NW 3.1 mph5.0 kmh 29.74 in1007.1 mb 0.00 in0.0 mm 0.00 in/hr0.0 mm/hr 0.00 in0.0 mm
04:57 PM 57.6°F14.2°C 51.1°F10.6°C 79% 1.3 mph S2.1 kmh S 3.1 mph5.0 kmh 29.74 in1007.1 mb 0.00 in0.0 mm 0.00 in/hr0.0 mm/hr 0.00 in0.0 mm
05:02 PM 57.7°F14.3°C 51.2°F10.7°C 79% 1.3 mph SSW2.1 kmh SSW 2.5 mph4.0 kmh 29.74 in1007.1 mb 0.00 in0.0 mm 0.00 in/hr0.0 mm/hr 0.00 in0.0 mm
05:07 PM 57.7°F14.3°C 51.2°F10.7°C 79% 2.3 mph S3.7 kmh S 3.6 mph5.8 kmh 29.74 in1007.1 mb 0.00 in0.0 mm 0.00 in/hr0.0 mm/hr 0.00 in0.0 mm
05:12 PM 57.7°F14.3°C 51.3°F10.7°C 79% Calm Calm 3.6 mph5.8 kmh 29.74 in1007.1 mb 0.00 in0.0 mm 0.00 in/hr0.0 mm/hr 0.00 in0.0 mm
05:17 PM 58.4°F14.7°C 51.9°F11.1°C 79% 1.0 mph N1.6 kmh N 1.6 mph2.6 kmh 29.74 in1007.1 mb 0.00 in0.0 mm 0.00 in/hr0.0 mm/hr 0.00 in0.0 mm
05:22 PM 58.2°F14.6°C 51.4°F10.8°C 78% 1.1 mph SW1.8 kmh SW 2.2 mph3.5 kmh 29.74 in1007.1 mb 0.00 in0.0 mm 0.00 in/hr0.0 mm/hr 0.00 in0.0 mm
05:27 PM 58.7°F14.8°C 51.8°F11.0°C 78% 0.4 mph SSW0.6 kmh SSW 2.9 mph4.7 kmh 29.74 in1007.1 mb 0.00 in0.0 mm 0.00 in/hr0.0 mm/hr 0.00 in0.0 mm
05:32 PM 58.9°F14.9°C 51.8°F11.0°C 77% 1.9 mph SW3.1 kmh SW 2.9 mph4.7 kmh 29.74 in1007.1 mb 0.00 in0.0 mm 0.00 in/hr0.0 mm/hr 0.00 in0.0 mm
05:37 PM 59.0°F15.0°C 51.6°F10.9°C 76% 1.0 mph SSE1.6 kmh SSE 2.9 mph4.7 kmh 29.74 in1007.1 mb 0.00 in0.0 mm 0.00 in/hr0.0 mm/hr 0.00 in0.0 mm
05:42 PM 59.2°F15.1°C 51.3°F10.7°C 74% 1.1 mph W1.8 kmh W 2.0 mph3.2 kmh 29.74 in1007.1 mb 0.00 in0.0 mm 0.00 in/hr0.0 mm/hr 0.00 in0.0 mm
05:47 PM 59.9°F15.5°C 51.6°F10.9°C 74% Calm Calm 1.6 mph2.6 kmh 29.74 in1007.1 mb 0.00 in0.0 mm 0.00 in/hr0.0 mm/hr 0.00 in0.0 mm
05:52 PM 60.2°F15.7°C 51.6°F10.9°C 73% 0.8 mph SW1.3 kmh SW 1.6 mph2.6 kmh 29.74 in1007.1 mb 0.00 in0.0 mm 0.00 in/hr0.0 mm/hr 0.00 in0.0 mm
05:57 PM 59.7°F15.4°C 50.6°F10.3°C 71% 1.0 mph SW1.6 kmh SW 2.0 mph3.2 kmh 29.74 in1007.1 mb 0.00 in0.0 mm 0.00 in/hr0.0 mm/hr 0.00 in0.0 mm
06:02 PM 60.0°F15.6°C 50.8°F10.4°C 71% 1.2 mph SW1.9 kmh SW 2.0 mph3.2 kmh 29.74 in1007.1 mb 0.00 in0.0 mm 0.00 in/hr0.0 mm/hr 0.00 in0.0 mm
06:07 PM -5537.2°C -5537.2°C - 0.4 mph SW0.6 kmh SW 2.0 mph3.2 kmh 29.74 in1007.1 mb 0.00 in0.0 mm 0.00 in/hr0.0 mm/hr 0.00 in0.0 mm
06:12 PM 59.7°F15.4°C 50.3°F10.2°C 71% 1.8 mph NNE2.9 kmh NNE 3.1 mph5.0 kmh 29.74 in1007.1 mb 0.00 in0.0 mm 0.00 in/hr0.0 mm/hr 0.00 in0.0 mm
06:17 PM 59.3°F15.2°C 49.9°F9.9°C 71% 1.5 mph SSW2.4 kmh SSW 3.1 mph5.0 kmh 29.74 in1007.1 mb 0.00 in0.0 mm 0.00 in/hr0.0 mm/hr 0.00 in0.0 mm
06:22 PM 58.7°F14.8°C 49.8°F9.9°C 73% 2.1 mph S3.4 kmh S 3.4 mph5.5 kmh 29.74 in1007.1 mb 0.00 in0.0 mm 0.00 in/hr0.0 mm/hr 0.00 in0.0 mm
06:27 PM 58.2°F14.6°C 49.6°F9.8°C 73% 1.1 mph SSW1.8 kmh SSW 3.4 mph5.5 kmh 29.74 in1007.1 mb 0.00 in0.0 mm 0.00 in/hr0.0 mm/hr 0.00 in0.0 mm
06:32 PM 58.1°F14.5°C 49.9°F9.9°C 74% 1.1 mph S1.8 kmh S 2.5 mph4.0 kmh 29.74 in1007.1 mb 0.00 in0.0 mm 0.00 in/hr0.0 mm/hr 0.00 in0.0 mm
06:37 PM 57.9°F14.4°C 50.3°F10.2°C 76% 1.2 mph SW1.9 kmh SW 2.2 mph3.5 kmh 29.74 in1007.1 mb 0.00 in0.0 mm 0.00 in/hr0.0 mm/hr 0.00 in0.0 mm
06:42 PM 57.7°F14.3°C 50.4°F10.2°C 77% 0.6 mph SSW1.0 kmh SSW 1.6 mph2.6 kmh 29.74 in1007.1 mb 0.00 in0.0 mm 0.00 in/hr0.0 mm/hr 0.00 in0.0 mm
06:47 PM 57.7°F14.3°C 51.0°F10.6°C 79% 0.8 mph SSW1.3 kmh SSW 1.6 mph2.6 kmh 29.74 in1007.1 mb 0.00 in0.0 mm 0.00 in/hr0.0 mm/hr 0.00 in0.0 mm
06:52 PM 57.5°F14.2°C 51.3°F10.7°C 80% 1.6 mph SW2.6 kmh SW 2.9 mph4.7 kmh 29.71 in1006.1 mb 0.00 in0.0 mm 0.00 in/hr0.0 mm/hr 0.00 in0.0 mm
06:57 PM 57.3°F14.1°C 51.3°F10.7°C 80% Calm Calm 3.1 mph5.0 kmh 29.71 in1006.1 mb 0.00 in0.0 mm 0.00 in/hr0.0 mm/hr 0.00 in0.0 mm
07:02 PM 57.3°F14.1°C 51.6°F10.9°C 82% 2.3 mph SW3.7 kmh SW 3.4 mph5.5 kmh 29.71 in1006.1 mb 0.00 in0.0 mm 0.00 in/hr0.0 mm/hr 0.00 in0.0 mm
07:07 PM 57.1°F13.9°C 51.8°F11.0°C 83% 1.2 mph S1.9 kmh S 3.4 mph5.5 kmh 29.71 in1006.1 mb 0.00 in0.0 mm 0.00 in/hr0.0 mm/hr 0.00 in0.0 mm
07:12 PM 56.9°F13.8°C 51.5°F10.8°C 82% Calm Calm 2.2 mph3.5 kmh 29.71 in1006.1 mb 0.00 in0.0 mm 0.00 in/hr0.0 mm/hr 0.00 in0.0 mm
07:17 PM 56.9°F13.8°C 51.7°F10.9°C 82% 1.2 mph SW1.9 kmh SW 2.9 mph4.7 kmh 29.71 in1006.1 mb 0.00 in0.0 mm 0.00 in/hr0.0 mm/hr 0.00 in0.0 mm
07:22 PM 56.7°F13.7°C 51.7°F10.9°C 83% Calm Calm 2.9 mph4.7 kmh 29.71 in1006.1 mb 0.00 in0.0 mm 0.00 in/hr0.0 mm/hr 0.00 in0.0 mm
07:27 PM 56.7°F13.7°C 51.9°F11.1°C 84% 0.8 mph SW1.3 kmh SW 2.7 mph4.3 kmh 29.71 in1006.1 mb 0.00 in0.0 mm 0.00 in/hr0.0 mm/hr 0.00 in0.0 mm
07:32 PM 56.7°F13.7°C 51.7°F10.9°C 83% 0.6 mph SSW1.0 kmh SSW 2.7 mph4.3 kmh 29.71 in1006.1 mb 0.00 in0.0 mm 0.00 in/hr0.0 mm/hr 0.00 in0.0 mm
07:37 PM 56.7°F13.7°C 51.7°F10.9°C 83% 0.7 mph SSW1.1 kmh SSW 2.0 mph3.2 kmh 29.68 in1005.1 mb 0.00 in0.0 mm 0.00 in/hr0.0 mm/hr 0.00 in0.0 mm
07:42 PM 56.5°F13.6°C 51.7°F10.9°C 84% 0.4 mph SW0.6 kmh SW 2.0 mph3.2 kmh 29.68 in1005.1 mb 0.00 in0.0 mm 0.00 in/hr0.0 mm/hr 0.00 in0.0 mm
07:47 PM 56.5°F13.6°C 51.9°F11.1°C 84% Calm Calm 1.3 mph2.1 kmh 29.68 in1005.1 mb 0.00 in0.0 mm 0.00 in/hr0.0 mm/hr 0.00 in0.0 mm
07:52 PM 56.5°F13.6°C 51.9°F11.1°C 84% 0.4 mph SW0.6 kmh SW 2.9 mph4.7 kmh 29.68 in1005.1 mb 0.00 in0.0 mm 0.00 in/hr0.0 mm/hr 0.00 in0.0 mm
07:57 PM 56.5°F13.6°C 51.9°F11.1°C 84% Calm Calm 2.9 mph4.7 kmh 29.68 in1005.1 mb 0.00 in0.0 mm 0.00 in/hr0.0 mm/hr 0.00 in0.0 mm
08:02 PM 56.5°F13.6°C 51.9°F11.1°C 84% 0.5 mph SW0.8 kmh SW 1.1 mph1.8 kmh 29.68 in1005.1 mb 0.00 in0.0 mm 0.00 in/hr0.0 mm/hr 0.00 in0.0 mm
08:07 PM 56.5°F13.6°C 51.9°F11.1°C 86% 1.2 mph SW1.9 kmh SW 2.7 mph4.3 kmh 29.68 in1005.1 mb 0.00 in0.0 mm 0.00 in/hr0.0 mm/hr 0.00 in0.0 mm
08:12 PM 56.5°F13.6°C 52.0°F11.1°C 84% 0.4 mph SW0.6 kmh SW 2.7 mph4.3 kmh 29.68 in1005.1 mb 0.00 in0.0 mm 0.00 in/hr0.0 mm/hr 0.00 in0.0 mm
08:17 PM 56.3°F13.5°C 52.0°F11.1°C 86% 0.4 mph SSW0.6 kmh SSW 2.5 mph4.0 kmh 29.68 in1005.1 mb 0.00 in0.0 mm 0.00 in/hr0.0 mm/hr 0.00 in0.0 mm
08:22 PM 56.3°F13.5°C 52.0°F11.1°C 86% 2.1 mph SW3.4 kmh SW 2.5 mph4.0 kmh 29.68 in1005.1 mb 0.00 in0.0 mm 0.00 in/hr0.0 mm/hr 0.00 in0.0 mm
08:27 PM 56.3°F13.5°C 52.0°F11.1°C 86% 2.0 mph SW3.2 kmh SW 4.3 mph6.9 kmh 29.68 in1005.1 mb 0.00 in0.0 mm 0.00 in/hr0.0 mm/hr 0.00 in0.0 mm
08:32 PM 56.3°F13.5°C 52.0°F11.1°C 86% 0.9 mph WSW1.4 kmh WSW 4.3 mph6.9 kmh 29.68 in1005.1 mb 0.00 in0.0 mm 0.00 in/hr0.0 mm/hr 0.00 in0.0 mm
08:37 PM 56.3°F13.5°C 51.9°F11.1°C 86% 0.8 mph SW1.3 kmh SW 3.8 mph6.1 kmh 29.68 in1005.1 mb 0.00 in0.0 mm 0.00 in/hr0.0 mm/hr 0.00 in0.0 mm
08:42 PM 56.4°F13.6°C 51.9°F11.1°C 84% 1.5 mph S2.4 kmh S 3.8 mph6.1 kmh 29.68 in1005.1 mb 0.00 in0.0 mm 0.00 in/hr0.0 mm/hr 0.00 in0.0 mm
08:47 PM 56.5°F13.6°C 51.9°F11.1°C 84% 0.4 mph SSW0.6 kmh SSW 3.1 mph5.0 kmh 29.68 in1005.1 mb 0.00 in0.0 mm 0.00 in/hr0.0 mm/hr 0.00 in0.0 mm
08:52 PM 56.5°F13.6°C 51.9°F11.1°C 84% 2.3 mph SW3.7 kmh SW 5.6 mph9.0 kmh 29.71 in1006.1 mb 0.00 in0.0 mm 0.00 in/hr0.0 mm/hr 0.00 in0.0 mm
08:57 PM 56.5°F13.6°C 52.0°F11.1°C 84% 1.0 mph SW1.6 kmh SW 5.6 mph9.0 kmh 29.71 in1006.1 mb 0.00 in0.0 mm 0.00 in/hr0.0 mm/hr 0.00 in0.0 mm
09:02 PM 56.3°F13.5°C 51.9°F11.1°C 86% 1.5 mph SW2.4 kmh SW 2.9 mph4.7 kmh 29.71 in1006.1 mb 0.00 in0.0 mm 0.00 in/hr0.0 mm/hr 0.00 in0.0 mm
09:07 PM 56.3°F13.5°C 52.0°F11.1°C 86% 2.1 mph SSW3.4 kmh SSW 3.4 mph5.5 kmh 29.71 in1006.1 mb 0.00 in0.0 mm 0.00 in/hr0.0 mm/hr 0.00 in0.0 mm
09:12 PM 56.3°F13.5°C 52.0°F11.1°C 86% 1.1 mph SW1.8 kmh SW 3.4 mph5.5 kmh 29.71 in1006.1 mb 0.00 in0.0 mm 0.00 in/hr0.0 mm/hr 0.00 in0.0 mm
09:17 PM 56.3°F13.5°C 52.0°F11.1°C 86% 1.0 mph SW1.6 kmh SW 2.2 mph3.5 kmh 29.71 in1006.1 mb 0.00 in0.0 mm 0.00 in/hr0.0 mm/hr 0.00 in0.0 mm
09:22 PM 56.3°F13.5°C 52.1°F11.2°C 86% 1.1 mph SSE1.8 kmh SSE 2.2 mph3.5 kmh 29.71 in1006.1 mb 0.00 in0.0 mm 0.00 in/hr0.0 mm/hr 0.00 in0.0 mm
09:27 PM 56.4°F13.6°C 52.0°F11.1°C 84% Calm Calm 2.2 mph3.5 kmh 29.71 in1006.1 mb 0.00 in0.0 mm 0.00 in/hr0.0 mm/hr 0.00 in0.0 mm
09:32 PM 56.5°F13.6°C 52.1°F11.2°C 86% Calm Calm 1.3 mph2.1 kmh 29.71 in1006.1 mb 0.00 in0.0 mm 0.00 in/hr0.0 mm/hr 0.00 in0.0 mm
09:37 PM 56.5°F13.6°C 52.2°F11.2°C 86% 0.3 mph S0.5 kmh S 2.0 mph3.2 kmh 29.68 in1005.1 mb 0.00 in0.0 mm 0.00 in/hr0.0 mm/hr 0.00 in0.0 mm
09:42 PM 56.3°F13.5°C 52.2°F11.2°C 87% 0.7 mph SSW1.1 kmh SSW 2.2 mph3.5 kmh 29.68 in1005.1 mb 0.00 in0.0 mm 0.00 in/hr0.0 mm/hr 0.00 in0.0 mm
09:47 PM 56.2°F13.4°C 52.8°F11.6°C 89% 1.8 mph S2.9 kmh S 2.9 mph4.7 kmh 29.68 in1005.1 mb 0.00 in0.0 mm 0.00 in/hr0.0 mm/hr 0.00 in0.0 mm
09:52 PM 55.9°F13.3°C 53.0°F11.7°C 90% 0.9 mph SSW1.4 kmh SSW 2.9 mph4.7 kmh 29.71 in1006.1 mb 0.00 in0.0 mm 0.00 in/hr0.0 mm/hr 0.00 in0.0 mm
09:57 PM 55.9°F13.3°C 53.0°F11.7°C 90% 1.1 mph SW1.8 kmh SW 2.9 mph4.7 kmh 29.71 in1006.1 mb 0.00 in0.0 mm 0.00 in/hr0.0 mm/hr 0.00 in0.0 mm
10:02 PM 55.8°F13.2°C 53.1°F11.7°C 91% 1.8 mph SW2.9 kmh SW 4.0 mph6.4 kmh 29.71 in1006.1 mb 0.00 in0.0 mm 0.00 in/hr0.0 mm/hr 0.00 in0.0 mm
10:07 PM 55.8°F13.2°C 53.2°F11.8°C 91% 1.3 mph SSW2.1 kmh SSW 4.0 mph6.4 kmh 29.68 in1005.1 mb 0.00 in0.0 mm 0.00 in/hr0.0 mm/hr 0.00 in0.0 mm
10:12 PM 55.7°F13.2°C 53.4°F11.9°C 92% 2.2 mph SW3.5 kmh SW 2.9 mph4.7 kmh 29.68 in1005.1 mb 0.00 in0.0 mm 0.00 in/hr0.0 mm/hr 0.00 in0.0 mm
10:17 PM 55.6°F13.1°C 53.4°F11.9°C 92% 1.3 mph SSW2.1 kmh SSW 2.9 mph4.7 kmh 29.68 in1005.1 mb 0.00 in0.0 mm 0.00 in/hr0.0 mm/hr 0.00 in0.0 mm
10:22 PM 55.4°F13.0°C 53.2°F11.8°C 92% Calm Calm 2.7 mph4.3 kmh 29.68 in1005.1 mb 0.00 in0.0 mm 0.00 in/hr0.0 mm/hr 0.00 in0.0 mm
10:27 PM 55.3°F12.9°C 53.3°F11.8°C 93% 1.3 mph SSW2.1 kmh SSW 3.6 mph5.8 kmh 29.68 in1005.1 mb 0.00 in0.0 mm 0.00 in/hr0.0 mm/hr 0.00 in0.0 mm
10:32 PM 55.2°F12.9°C 53.6°F12.0°C 94% 1.8 mph SSW2.9 kmh SSW 3.6 mph5.8 kmh 29.68 in1005.1 mb 0.00 in0.0 mm 0.00 in/hr0.0 mm/hr 0.00 in0.0 mm
10:37 PM 55.0°F12.8°C 53.5°F11.9°C 94% 1.1 mph SW1.8 kmh SW 2.5 mph4.0 kmh 29.68 in1005.1 mb 0.00 in0.0 mm 0.00 in/hr0.0 mm/hr 0.00 in0.0 mm
10:42 PM 55.0°F12.8°C 53.4°F11.9°C 94% 0.4 mph N0.6 kmh N 2.5 mph4.0 kmh 29.68 in1005.1 mb 0.00 in0.0 mm 0.00 in/hr0.0 mm/hr 0.00 in0.0 mm
10:47 PM 54.9°F12.7°C 53.4°F11.9°C 96% 0.7 mph SSW1.1 kmh SSW 2.9 mph4.7 kmh 29.68 in1005.1 mb 0.00 in0.0 mm 0.00 in/hr0.0 mm/hr 0.00 in0.0 mm
10:52 PM 54.9°F12.7°C 53.5°F11.9°C 94% 0.7 mph W1.1 kmh W 2.9 mph4.7 kmh 29.68 in1005.1 mb 0.00 in0.0 mm 0.00 in/hr0.0 mm/hr 0.00 in0.0 mm
10:57 PM 54.9°F12.7°C 53.3°F11.8°C 94% 1.7 mph SW2.7 kmh SW 2.7 mph4.3 kmh 29.68 in1005.1 mb 0.00 in0.0 mm 0.00 in/hr0.0 mm/hr 0.00 in0.0 mm
11:02 PM 54.9°F12.7°C 53.3°F11.8°C 94% 0.4 mph WSW0.6 kmh WSW 2.7 mph4.3 kmh 29.68 in1005.1 mb 0.05 in1.3 mm 0.05 in/hr1.3 mm/hr 0.05 in1.3 mm
11:07 PM 54.7°F12.6°C 53.2°F11.8°C 94% Calm Calm 3.4 mph5.5 kmh 29.68 in1005.1 mb 0.00 in0.0 mm 0.00 in/hr0.0 mm/hr 0.05 in1.3 mm
11:12 PM 54.7°F12.6°C 53.1°F11.7°C 94% Calm Calm 3.4 mph5.5 kmh 29.68 in1005.1 mb 0.00 in0.0 mm 0.00 in/hr0.0 mm/hr 0.05 in1.3 mm
11:17 PM 54.6°F12.6°C 53.0°F11.7°C 94% Calm Calm 1.6 mph2.6 kmh 29.68 in1005.1 mb 0.05 in1.3 mm 0.60 in/hr15.2 mm/hr 0.05 in1.3 mm
11:22 PM 54.6°F12.6°C 53.0°F11.7°C 94% 0.1 mph WSW0.2 kmh WSW 1.6 mph2.6 kmh 29.71 in1006.1 mb 0.05 in1.3 mm 0.00 in/hr0.0 mm/hr 0.05 in1.3 mm
11:27 PM 54.5°F12.5°C 52.9°F11.6°C 94% Calm Calm 2.2 mph3.5 kmh 29.71 in1006.1 mb 0.00 in0.0 mm 0.00 in/hr0.0 mm/hr 0.10 in2.5 mm
11:32 PM 54.5°F12.5°C 52.9°F11.6°C 94% Calm Calm 2.9 mph4.7 kmh 29.71 in1006.1 mb 0.00 in0.0 mm 0.00 in/hr0.0 mm/hr 0.10 in2.5 mm
11:37 PM 54.4°F12.4°C 52.9°F11.6°C 94% 1.1 mph S1.8 kmh S 2.9 mph4.7 kmh 29.71 in1006.1 mb 0.05 in1.3 mm 0.60 in/hr15.2 mm/hr 0.05 in1.3 mm
11:42 PM 54.3°F12.4°C 52.8°F11.6°C 94% 1.5 mph S2.4 kmh S 2.9 mph4.7 kmh 29.71 in1006.1 mb 0.00 in0.0 mm 0.00 in/hr0.0 mm/hr 0.15 in3.8 mm
11:47 PM 54.3°F12.4°C 52.8°F11.6°C 94% 0.4 mph SSW0.6 kmh SSW 2.9 mph4.7 kmh 29.71 in1006.1 mb 0.00 in0.0 mm 0.00 in/hr0.0 mm/hr 0.15 in3.8 mm
11:52 PM 54.3°F12.4°C 52.7°F11.5°C 94% 0.8 mph S1.3 kmh S 3.1 mph5.0 kmh 29.68 in1005.1 mb 0.00 in0.0 mm 0.00 in/hr0.0 mm/hr 0.15 in3.8 mm
11:57 PM 54.1°F12.3°C 52.7°F11.5°C 96% 1.3 mph S2.1 kmh S 3.1 mph5.0 kmh 29.68 in1005.1 mb 0.00 in0.0 mm 0.00 in/hr0.0 mm/hr 0.15 in3.8 mm